Mc Lean, Virginia
Current Conditions -  °F | °C
As of 7:52 AM on Saturday 25 Oct 2014 (Local Time) from KDCA Reporting Station
Clear Clear  
Wind Chill: 50°   Ceiling: Unl
Heat Index: 50°   Visibility: 10mi
Dew Point: 41°   Wind: 3mph
Humidity: 71%   Direction: 230°SW
Pressure: 29.97"   Gusts: NA
Location:  38.9398°N, 77.1677°W
Report Text: KDCA 251152Z 23003KT 10SM CLR 10/05 A2997 RMK AO2 SLP148 T01000050 10128 20094 52004 $
Loading
Personal Weather Stations






























Interactive Weather Map
Tropical Storm Tracking
New forecast layout! Learn more

10-Day Weather Forecast

Advertisements
Track Severe Weather on mobile